Terminal Aerodrome Forecast
Issued by NWS Albany, NY

Home | Current Version | Previous Version | Text Only | Print | Product List | Glossary On
Versions: 1 2 3 4 5 6 7 8 9 10 11 12 13 14 15 16 17 18 19 20 21 22 23
905
FTUS41 KALY 291540 AAB
TAFALB
TAF AMD
KALB 291540Z 2916/3012 04009KT P6SM BKN018 BKN040
      TEMPO 2916/2918 SCT015 BKN040
     FM291800 34012G20KT P6SM BKN045
     FM300200 33008KT P6SM SCT050=

USA.gov is the U.S. government's official web portal to all federal, state and local government web resources and services.